createdAt,value
2017-10-13T00:00:00.084Z,0.00
2017-10-13T00:01:00.117Z,0.00
2017-10-13T00:02:00.157Z,0.00
2017-10-13T00:03:00.184Z,0.00
2017-10-13T00:04:00.229Z,0.00
2017-10-13T00:05:00.259Z,0.00
2017-10-13T00:06:00.295Z,0.00
2017-10-13T00:07:00.325Z,0.00
2017-10-13T00:08:00.360Z,0.00
2017-10-13T00:09:00.393Z,0.00
2017-10-13T00:10:00.428Z,0.00
2017-10-13T00:11:00.464Z,0.00
2017-10-13T00:12:00.501Z,0.00
2017-10-13T00:13:00.538Z,0.00
2017-10-13T00:14:00.572Z,0.00
2017-10-13T00:15:00.608Z,0.00
2017-10-13T00:16:00.642Z,0.00
2017-10-13T00:17:00.680Z,0.00
2017-10-13T00:18:00.730Z,0.00
2017-10-13T00:19:00.744Z,0.00
2017-10-13T00:20:00.784Z,0.00
2017-10-13T00:21:00.815Z,0.00
2017-10-13T00:22:00.854Z,0.00
2017-10-13T00:23:00.886Z,0.00
2017-10-13T00:24:00.922Z,0.00
2017-10-13T00:25:00.955Z,0.00
2017-10-13T00:26:00.988Z,0.00
2017-10-13T00:27:01.028Z,0.00
2017-10-13T00:28:01.066Z,0.00
2017-10-13T00:29:01.092Z,0.00
2017-10-13T00:30:01.128Z,0.00
2017-10-13T00:31:01.165Z,0.00
2017-10-13T00:32:01.197Z,0.00
2017-10-13T00:33:01.244Z,0.00
2017-10-13T00:34:01.266Z,0.00
2017-10-13T00:35:01.303Z,0.00
2017-10-13T00:36:01.339Z,0.00
2017-10-13T00:37:01.372Z,0.00
2017-10-13T00:38:01.406Z,0.00
2017-10-13T00:39:01.440Z,0.00
2017-10-13T00:40:01.477Z,0.00
2017-10-13T00:41:01.510Z,0.00
2017-10-13T00:42:01.544Z,0.00
2017-10-13T00:43:01.592Z,0.00
2017-10-13T00:44:01.616Z,0.00
2017-10-13T00:45:01.650Z,0.00
2017-10-13T00:46:01.683Z,0.00
2017-10-13T00:47:01.730Z,0.00
2017-10-13T00:48:01.762Z,0.00
2017-10-13T00:49:01.792Z,0.00
2017-10-13T00:50:01.825Z,0.00
2017-10-13T00:51:01.858Z,0.00
2017-10-13T00:52:01.895Z,0.00
2017-10-13T00:53:01.930Z,0.00
2017-10-13T00:54:01.964Z,0.00
2017-10-13T00:55:01.998Z,0.00
2017-10-13T00:56:02.033Z,0.00
2017-10-13T00:57:02.071Z,0.00
2017-10-13T00:58:02.100Z,0.00
2017-10-13T00:59:02.140Z,0.00
2017-10-13T01:00:02.174Z,0.00
2017-10-13T01:01:02.210Z,0.00
2017-10-13T01:02:02.254Z,0.00
2017-10-13T01:03:02.276Z,0.00
2017-10-13T01:04:02.311Z,0.00
2017-10-13T01:05:02.348Z,0.00
2017-10-13T01:06:02.380Z,0.00
2017-10-13T01:07:02.422Z,0.00
2017-10-13T01:08:02.451Z,0.00
2017-10-13T01:09:02.485Z,0.00
2017-10-13T01:10:02.530Z,0.00
2017-10-13T01:11:02.553Z,0.00
2017-10-13T01:12:02.594Z,0.00
2017-10-13T01:13:02.624Z,0.00
2017-10-13T01:14:02.659Z,0.00
2017-10-13T01:15:02.692Z,0.00
2017-10-13T01:16:02.726Z,0.00
2017-10-13T01:17:02.761Z,0.00
2017-10-13T01:18:02.806Z,0.00
2017-10-13T01:19:02.831Z,0.00
2017-10-13T01:20:02.865Z,0.00
2017-10-13T01:21:02.899Z,0.00
2017-10-13T01:22:02.937Z,0.00
2017-10-13T01:23:02.971Z,0.00
2017-10-13T01:24:03.006Z,0.00
2017-10-13T01:25:03.044Z,0.00
2017-10-13T01:26:03.076Z,0.00
2017-10-13T01:27:03.112Z,0.00
2017-10-13T01:28:03.143Z,0.00
2017-10-13T01:29:03.179Z,0.00
2017-10-13T01:30:03.228Z,0.00
2017-10-13T01:31:03.249Z,0.00
2017-10-13T01:32:03.288Z,0.00
2017-10-13T01:33:03.321Z,0.00
2017-10-13T01:34:03.353Z,0.00
2017-10-13T01:35:03.391Z,0.00
2017-10-13T01:36:03.422Z,0.00
2017-10-13T01:37:03.460Z,0.00
2017-10-13T01:38:03.492Z,0.00
2017-10-13T01:39:03.542Z,0.00
2017-10-13T01:40:03.567Z,0.00
2017-10-13T01:41:03.606Z,0.00
2017-10-13T01:42:03.642Z,0.00
2017-10-13T01:43:03.666Z,0.00
2017-10-13T01:44:03.702Z,0.00
2017-10-13T01:45:03.736Z,0.00
2017-10-13T01:46:03.771Z,0.00
2017-10-13T01:47:03.807Z,0.00
2017-10-13T01:48:03.843Z,0.00
2017-10-13T01:49:03.879Z,0.00
2017-10-13T01:50:03.911Z,0.00
2017-10-13T01:51:03.956Z,0.00
2017-10-13T01:52:03.990Z,0.00
2017-10-13T01:53:04.024Z,0.00
2017-10-13T01:54:04.051Z,0.00
2017-10-13T01:55:04.087Z,0.00
2017-10-13T01:56:04.121Z,0.00
2017-10-13T01:57:04.161Z,0.00
2017-10-13T01:58:04.193Z,0.00
2017-10-13T01:59:04.227Z,0.00
2017-10-13T02:00:04.261Z,0.00
2017-10-13T02:01:04.298Z,0.00
2017-10-13T02:02:04.331Z,0.00
2017-10-13T02:03:04.373Z,0.00
2017-10-13T02:04:04.401Z,0.00
2017-10-13T02:05:04.436Z,0.00
2017-10-13T02:06:04.470Z,0.00
2017-10-13T02:07:04.510Z,0.00
2017-10-13T02:08:04.542Z,0.00
2017-10-13T02:09:04.581Z,0.00
2017-10-13T02:10:04.614Z,0.00
2017-10-13T02:11:04.644Z,0.00
2017-10-13T02:12:04.681Z,0.00
2017-10-13T02:13:04.717Z,0.00
2017-10-13T02:14:04.750Z,0.00
2017-10-13T02:15:04.783Z,0.00
2017-10-13T02:16:04.818Z,0.00
2017-10-13T02:17:04.861Z,0.00
2017-10-13T02:18:04.890Z,0.00
2017-10-13T02:19:04.922Z,0.00
2017-10-13T02:20:04.957Z,0.00
2017-10-13T02:21:04.993Z,0.00
2017-10-13T02:22:05.030Z,0.00
2017-10-13T02:23:05.063Z,0.00
2017-10-13T02:24:05.104Z,0.00
2017-10-13T02:25:05.135Z,0.00
2017-10-13T02:26:05.168Z,0.00
2017-10-13T02:27:05.205Z,0.00
2017-10-13T02:28:05.237Z,0.00
2017-10-13T02:29:05.274Z,0.00
2017-10-13T02:30:05.314Z,0.00
2017-10-13T02:31:05.341Z,0.00
2017-10-13T02:32:05.383Z,0.00
2017-10-13T02:33:05.414Z,0.00
2017-10-13T02:34:05.449Z,0.00
2017-10-13T02:35:05.483Z,0.00
2017-10-13T02:36:05.529Z,0.00
2017-10-13T02:37:05.551Z,0.00
2017-10-13T02:38:05.591Z,0.00
2017-10-13T02:39:05.621Z,0.00
2017-10-13T02:40:05.655Z,0.00
2017-10-13T02:41:05.690Z,0.00
2017-10-13T02:42:05.723Z,0.00
2017-10-13T02:43:05.765Z,0.00
2017-10-13T02:44:05.796Z,0.00
2017-10-13T02:45:05.832Z,0.00
2017-10-13T02:46:05.862Z,0.00
2017-10-13T02:47:05.900Z,0.00
2017-10-13T02:48:05.932Z,0.00
2017-10-13T02:49:05.969Z,0.00
2017-10-13T02:50:06.009Z,0.00
2017-10-13T02:51:06.037Z,0.00
2017-10-13T02:52:06.075Z,0.00
2017-10-13T02:53:06.106Z,0.00
2017-10-13T02:54:06.146Z,0.00
2017-10-13T02:55:06.176Z,0.00
2017-10-13T02:56:06.214Z,0.00
2017-10-13T02:57:06.247Z,0.00
2017-10-13T02:58:06.281Z,0.00
2017-10-13T02:59:06.335Z,0.00
2017-10-13T03:00:06.350Z,0.00
2017-10-13T03:01:06.383Z,0.00
2017-10-13T03:02:06.421Z,0.00
2017-10-13T03:03:06.455Z,0.00
2017-10-13T03:04:06.491Z,0.00
2017-10-13T03:05:06.528Z,0.00
2017-10-13T03:06:06.560Z,0.00
2017-10-13T03:07:06.597Z,0.00
2017-10-13T03:08:06.632Z,0.00
2017-10-13T03:09:06.667Z,0.00
2017-10-13T03:10:06.700Z,0.00
2017-10-13T03:11:06.735Z,0.00
2017-10-13T03:12:06.776Z,0.00
2017-10-13T03:13:06.807Z,0.00
2017-10-13T03:14:06.838Z,0.00
2017-10-13T03:15:06.874Z,0.00
2017-10-13T03:16:06.911Z,0.00
2017-10-13T03:17:06.946Z,0.00
2017-10-13T03:18:06.978Z,0.00
2017-10-13T03:19:07.014Z,0.00
2017-10-13T03:20:07.047Z,0.00
2017-10-13T03:21:07.084Z,0.00
2017-10-13T03:22:07.120Z,0.00
2017-10-13T03:23:07.153Z,0.00
2017-10-13T03:24:07.190Z,0.00
2017-10-13T03:25:07.228Z,0.00
2017-10-13T03:26:07.257Z,0.00
2017-10-13T03:27:07.296Z,0.00
2017-10-13T03:28:07.330Z,0.00
2017-10-13T03:29:07.368Z,0.00
2017-10-13T03:30:07.398Z,0.00
2017-10-13T03:31:07.434Z,0.00
2017-10-13T03:32:07.469Z,0.00
2017-10-13T03:33:07.502Z,0.00
2017-10-13T03:34:07.535Z,0.00
2017-10-13T03:35:07.572Z,0.00
2017-10-13T03:36:07.607Z,0.00
2017-10-13T03:37:07.644Z,0.00
2017-10-13T03:38:07.676Z,0.00
2017-10-13T03:39:07.715Z,0.00
2017-10-13T03:40:07.752Z,0.00
2017-10-13T03:41:07.784Z,0.00
2017-10-13T03:42:07.818Z,0.00
2017-10-13T03:43:07.853Z,0.00
2017-10-13T03:44:07.884Z,0.00
2017-10-13T03:45:07.923Z,0.00
2017-10-13T03:46:07.955Z,0.00
2017-10-13T03:47:07.989Z,0.00
2017-10-13T03:48:08.025Z,0.00
2017-10-13T03:49:08.060Z,0.00
2017-10-13T03:50:08.105Z,0.00
2017-10-13T03:51:08.129Z,0.00
2017-10-13T03:52:08.167Z,0.00
2017-10-13T03:53:08.199Z,0.00
2017-10-13T03:54:08.233Z,0.00
2017-10-13T03:55:08.270Z,0.00
2017-10-13T03:56:08.304Z,0.00
2017-10-13T03:57:08.340Z,0.00
2017-10-13T03:58:08.371Z,0.00
2017-10-13T03:59:08.410Z,0.00
2017-10-13T04:00:08.445Z,0.00
2017-10-13T04:01:08.477Z,0.00
2017-10-13T04:02:08.513Z,0.00
2017-10-13T04:03:08.549Z,0.00
2017-10-13T04:04:08.582Z,0.00
2017-10-13T04:05:08.679Z,0.00
2017-10-13T04:06:08.651Z,0.00
2017-10-13T04:07:08.686Z,0.00
2017-10-13T04:08:08.721Z,0.00
2017-10-13T04:09:08.757Z,0.00
2017-10-13T04:10:08.795Z,0.00
2017-10-13T04:11:08.826Z,0.00
2017-10-13T04:12:08.866Z,0.00
2017-10-13T04:13:08.895Z,0.00
2017-10-13T04:14:08.929Z,0.00
2017-10-13T04:15:08.965Z,0.00
2017-10-13T04:16:08.999Z,0.00
2017-10-13T04:17:09.043Z,0.00
2017-10-13T04:18:09.069Z,0.00
2017-10-13T04:19:09.105Z,0.00
2017-10-13T04:20:09.142Z,0.00
2017-10-13T04:21:09.174Z,0.00
2017-10-13T04:22:09.212Z,0.00
2017-10-13T04:23:09.242Z,0.00
2017-10-13T04:24:09.278Z,0.00
2017-10-13T04:25:09.315Z,0.00
2017-10-13T04:26:09.351Z,0.00
2017-10-13T04:27:09.389Z,0.00
2017-10-13T04:28:09.421Z,0.00
2017-10-13T04:29:09.453Z,0.00
2017-10-13T04:30:09.486Z,0.00
2017-10-13T04:31:09.522Z,0.00
2017-10-13T04:32:09.559Z,0.00
2017-10-13T04:33:09.600Z,0.00
2017-10-13T04:34:09.628Z,0.00
2017-10-13T04:35:09.665Z,0.00
2017-10-13T04:36:09.704Z,0.00
2017-10-13T04:37:09.737Z,0.00
2017-10-13T04:38:09.768Z,0.00
2017-10-13T04:39:09.801Z,0.00
2017-10-13T04:40:09.836Z,0.00
2017-10-13T04:41:09.885Z,0.00
2017-10-13T04:42:09.905Z,0.00
2017-10-13T04:43:09.956Z,0.00
2017-10-13T04:44:09.975Z,0.00
2017-10-13T04:45:10.017Z,0.00
2017-10-13T04:46:10.050Z,0.00
2017-10-13T04:47:10.079Z,0.00
2017-10-13T04:48:10.119Z,0.00
2017-10-13T04:49:10.148Z,0.00
2017-10-13T04:50:10.185Z,0.00
2017-10-13T04:51:10.220Z,0.00
2017-10-13T04:52:10.257Z,0.00
2017-10-13T04:53:10.390Z,0.00
2017-10-13T04:54:10.333Z,0.00
2017-10-13T04:55:10.359Z,0.00
2017-10-13T04:56:10.396Z,0.00
2017-10-13T04:57:10.431Z,0.00
2017-10-13T04:58:10.536Z,0.00
2017-10-13T04:59:10.589Z,0.00
2017-10-13T05:00:10.537Z,0.00
2017-10-13T05:01:10.572Z,0.00
2017-10-13T05:02:10.604Z,0.00
2017-10-13T05:03:10.641Z,4.00
2017-10-13T05:04:10.670Z,4.00
2017-10-13T05:05:10.709Z,0.00
2017-10-13T05:06:10.742Z,0.00
2017-10-13T05:07:10.782Z,4.00
2017-10-13T05:08:10.812Z,4.00
2017-10-13T05:09:10.847Z,4.00
2017-10-13T05:10:10.887Z,4.00
2017-10-13T05:11:10.922Z,4.00
2017-10-13T05:12:10.965Z,8.00
2017-10-13T05:13:10.983Z,8.00
2017-10-13T05:14:11.024Z,12.00
2017-10-13T05:15:11.055Z,12.00
2017-10-13T05:16:11.096Z,12.00
2017-10-13T05:17:11.124Z,20.00
2017-10-13T05:18:11.160Z,24.00
2017-10-13T05:19:11.193Z,24.00
2017-10-13T05:20:11.234Z,28.00
2017-10-13T05:21:11.267Z,32.00
2017-10-13T05:22:11.418Z,36.00
2017-10-13T05:23:11.334Z,40.00
2017-10-13T05:24:11.367Z,44.00
2017-10-13T05:25:11.402Z,52.00
2017-10-13T05:26:11.438Z,60.00
2017-10-13T05:27:11.482Z,64.00
2017-10-13T05:28:11.511Z,68.00
2017-10-13T05:29:11.547Z,68.00
2017-10-13T05:30:11.574Z,76.00
2017-10-13T05:31:11.622Z,80.00
2017-10-13T05:32:11.651Z,88.00
2017-10-13T05:33:13.461Z,92.00
2017-10-13T05:34:11.720Z,100.00
2017-10-13T05:35:11.769Z,112.00
2017-10-13T05:36:11.784Z,120.00
2017-10-13T05:37:11.820Z,132.00
2017-10-13T05:38:11.852Z,148.00
2017-10-13T05:39:11.887Z,164.00
2017-10-13T05:40:11.922Z,184.00
2017-10-13T05:41:11.973Z,204.00
2017-10-13T05:42:11.994Z,224.00
2017-10-13T05:43:12.038Z,244.00
2017-10-13T05:44:12.066Z,264.00
2017-10-13T05:45:12.100Z,276.00
2017-10-13T05:46:12.136Z,292.00
2017-10-13T05:47:12.162Z,308.00
2017-10-13T05:48:12.201Z,328.00
2017-10-13T05:49:12.235Z,340.00
2017-10-13T05:50:12.268Z,356.00
2017-10-13T05:51:12.303Z,380.00
2017-10-13T05:52:12.336Z,404.00
2017-10-13T05:53:12.372Z,420.00
2017-10-13T05:54:12.416Z,424.00
2017-10-13T05:55:12.444Z,444.00
2017-10-13T05:56:12.482Z,488.00
2017-10-13T05:57:12.535Z,492.00
2017-10-13T05:58:12.576Z,476.00
2017-10-13T05:59:12.580Z,484.00
2017-10-13T06:00:12.619Z,512.00
2017-10-13T06:01:12.732Z,552.00
2017-10-13T06:02:12.701Z,552.00
2017-10-13T06:03:12.721Z,620.00
2017-10-13T06:04:12.761Z,620.00
2017-10-13T06:05:12.794Z,568.00
2017-10-13T06:06:12.827Z,608.00
2017-10-13T06:07:12.869Z,660.00
2017-10-13T06:08:12.900Z,696.00
2017-10-13T06:09:12.981Z,704.00
2017-10-13T06:10:12.963Z,696.00
2017-10-13T06:11:12.996Z,728.00
2017-10-13T06:12:13.036Z,728.00
2017-10-13T06:13:13.064Z,740.00
2017-10-13T06:14:13.103Z,744.00
2017-10-13T06:15:13.137Z,780.00
2017-10-13T06:16:13.185Z,804.00
2017-10-13T06:17:13.208Z,768.00
2017-10-13T06:18:13.240Z,800.00
2017-10-13T06:19:13.304Z,808.00
2017-10-13T06:20:13.312Z,824.00
2017-10-13T06:21:13.363Z,856.00
2017-10-13T06:22:13.380Z,848.00
2017-10-13T06:23:16.149Z,916.00
2017-10-13T06:24:13.449Z,940.00
2017-10-13T06:25:13.486Z,960.00
2017-10-13T06:26:13.537Z,880.00
2017-10-13T06:27:13.578Z,876.00
2017-10-13T06:28:13.607Z,816.00
2017-10-13T06:29:13.630Z,844.00
2017-10-13T06:30:13.674Z,796.00
2017-10-13T06:31:13.701Z,796.00
2017-10-13T06:32:13.736Z,768.00
2017-10-13T06:33:13.781Z,856.00
2017-10-13T06:34:13.815Z,988.00
2017-10-13T06:35:13.839Z,1020.00
2017-10-13T06:36:13.883Z,936.00
2017-10-13T06:37:13.912Z,944.00
2017-10-13T06:38:13.949Z,964.00
2017-10-13T06:39:13.982Z,996.00
2017-10-13T06:40:14.013Z,1020.00
2017-10-13T06:41:14.061Z,972.00
2017-10-13T06:42:14.092Z,1028.00
2017-10-13T06:43:14.122Z,1064.00
2017-10-13T06:44:14.159Z,1124.00
2017-10-13T06:45:14.194Z,1132.00
2017-10-13T06:46:14.232Z,1228.00
2017-10-13T06:47:14.265Z,1240.00
2017-10-13T06:48:14.306Z,1296.00
2017-10-13T06:49:14.336Z,1296.00
2017-10-13T06:50:14.381Z,1248.00
2017-10-13T06:51:14.411Z,1228.00
2017-10-13T06:52:14.471Z,1192.00
2017-10-13T06:53:14.475Z,1276.00
2017-10-13T06:54:14.533Z,1288.00
2017-10-13T06:55:14.567Z,1204.00
2017-10-13T06:56:14.589Z,1224.00
2017-10-13T06:57:14.623Z,1196.00
2017-10-13T06:58:14.659Z,1256.00
2017-10-13T06:59:14.686Z,1316.00
2017-10-13T07:00:14.941Z,1492.00
2017-10-13T07:01:14.896Z,1628.00
2017-10-13T07:02:15.176Z,1688.00
2017-10-13T07:03:14.838Z,1576.00
2017-10-13T07:04:14.882Z,1604.00
2017-10-13T07:05:14.907Z,1644.00
2017-10-13T07:06:14.935Z,1688.00
2017-10-13T07:07:14.971Z,1744.00
2017-10-13T07:08:15.005Z,1760.00
2017-10-13T07:09:15.052Z,1692.00
2017-10-13T07:10:15.083Z,1608.00
2017-10-13T07:11:15.134Z,1644.00
2017-10-13T07:12:15.149Z,1712.00
2017-10-13T07:13:15.188Z,1552.00
2017-10-13T07:14:15.220Z,1492.00
2017-10-13T07:15:15.287Z,1400.00
2017-10-13T07:16:15.298Z,1508.00
2017-10-13T07:17:15.341Z,1404.00
2017-10-13T07:18:15.360Z,1440.00
2017-10-13T07:19:15.404Z,1468.00
2017-10-13T07:20:15.435Z,1552.00
2017-10-13T07:21:15.545Z,1540.00
2017-10-13T07:22:15.507Z,1568.00
2017-10-13T07:23:15.542Z,1668.00
2017-10-13T07:24:15.581Z,1708.00
2017-10-13T07:25:15.618Z,1852.00
2017-10-13T07:26:15.659Z,1852.00
2017-10-13T07:27:15.694Z,1912.00
2017-10-13T07:28:15.736Z,1968.00
2017-10-13T07:29:16.509Z,1936.00
2017-10-13T07:30:15.800Z,2000.00
2017-10-13T07:31:16.622Z,1908.00
2017-10-13T07:32:15.873Z,1856.00
2017-10-13T07:33:15.901Z,2124.00
2017-10-13T07:34:16.004Z,2132.00
2017-10-13T07:35:15.973Z,2132.00
2017-10-13T07:36:16.018Z,2180.00
2017-10-13T07:37:16.051Z,2160.00
2017-10-13T07:38:16.095Z,1976.00
2017-10-13T07:39:16.119Z,1888.00
2017-10-13T07:40:16.191Z,1972.00
2017-10-13T07:41:16.196Z,1932.00
2017-10-13T07:42:17.230Z,1928.00
2017-10-13T07:43:16.265Z,2024.00
2017-10-13T07:44:16.300Z,2000.00
2017-10-13T07:45:16.412Z,2176.00
2017-10-13T07:46:16.372Z,2016.00
2017-10-13T07:47:16.431Z,2052.00
2017-10-13T07:48:16.444Z,2248.00
2017-10-13T07:49:16.489Z,2168.00
2017-10-13T07:50:16.551Z,2104.00
2017-10-13T07:51:16.560Z,2140.00
2017-10-13T07:52:16.594Z,2128.00
2017-10-13T07:53:16.628Z,2444.00
2017-10-13T07:54:16.672Z,2248.00
2017-10-13T07:55:16.704Z,2264.00
2017-10-13T07:56:16.734Z,2240.00
2017-10-13T07:57:16.779Z,2500.00
2017-10-13T07:58:16.813Z,2336.00
2017-10-13T07:59:16.848Z,2284.00
2017-10-13T08:00:17.489Z,2476.00
2017-10-13T08:01:16.946Z,2244.00
2017-10-13T08:02:16.961Z,2424.00
2017-10-13T08:03:16.991Z,2480.00
2017-10-13T08:04:17.038Z,1940.00
2017-10-13T08:05:17.078Z,2424.00
2017-10-13T08:06:17.104Z,2340.00
2017-10-13T08:07:17.142Z,2616.00
2017-10-13T08:08:17.180Z,2848.00
2017-10-13T08:09:17.254Z,2648.00
2017-10-13T08:10:17.362Z,2248.00
2017-10-13T08:11:17.288Z,1980.00
2017-10-13T08:12:17.322Z,2296.00
2017-10-13T08:13:18.012Z,2776.00
2017-10-13T08:14:17.441Z,2596.00
2017-10-13T08:15:17.446Z,2508.00
2017-10-13T08:16:18.056Z,2352.00
2017-10-13T08:17:18.922Z,2952.00
2017-10-13T08:18:17.725Z,2764.00
2017-10-13T08:19:18.987Z,3240.00
2017-10-13T08:20:18.303Z,2588.00
2017-10-13T08:21:18.349Z,2644.00
2017-10-13T08:22:17.692Z,3196.00
2017-10-13T08:23:17.730Z,2692.00
2017-10-13T08:24:17.763Z,2268.00
2017-10-13T08:25:17.804Z,2572.00
2017-10-13T08:26:17.836Z,2396.00
2017-10-13T08:27:17.893Z,2140.00
2017-10-13T08:28:17.921Z,2868.00
2017-10-13T08:29:17.952Z,2868.00
2017-10-13T08:30:18.040Z,3112.00
2017-10-13T08:31:18.069Z,2580.00
2017-10-13T08:32:18.149Z,2204.00
2017-10-13T08:33:18.102Z,2760.00
2017-10-13T08:34:18.140Z,3220.00
2017-10-13T08:35:18.174Z,3144.00
2017-10-13T08:36:18.221Z,2896.00
2017-10-13T08:37:18.347Z,2772.00
2017-10-13T08:38:18.289Z,3020.00
2017-10-13T08:39:18.333Z,2588.00
2017-10-13T08:40:18.372Z,2128.00
2017-10-13T08:41:18.415Z,2144.00
2017-10-13T08:42:18.435Z,2432.00
2017-10-13T08:43:18.473Z,3052.00
2017-10-13T08:44:18.507Z,2176.00
2017-10-13T08:45:18.595Z,2120.00
2017-10-13T08:46:18.589Z,2524.00
2017-10-13T08:47:18.625Z,2484.00
2017-10-13T08:48:18.678Z,2276.00
2017-10-13T08:49:18.699Z,2596.00
2017-10-13T08:50:18.734Z,3264.00
2017-10-13T08:51:18.771Z,3636.00
2017-10-13T08:52:18.806Z,2984.00
2017-10-13T08:53:18.848Z,2640.00
2017-10-13T08:54:18.881Z,4236.00
2017-10-13T08:55:18.941Z,3936.00
2017-10-13T08:56:18.992Z,3604.00
2017-10-13T08:57:18.996Z,2940.00
2017-10-13T08:58:19.033Z,2028.00
2017-10-13T08:59:19.070Z,2224.00
2017-10-13T09:00:19.116Z,2524.00
2017-10-13T09:01:19.151Z,2204.00
2017-10-13T09:02:19.191Z,2220.00
2017-10-13T09:03:19.222Z,2608.00
2017-10-13T09:04:19.261Z,2460.00
2017-10-13T09:05:19.307Z,3036.00
2017-10-13T09:06:19.340Z,3472.00
2017-10-13T09:07:19.375Z,3628.00
2017-10-13T09:08:19.417Z,3652.00
2017-10-13T09:09:19.467Z,2588.00
2017-10-13T09:10:19.489Z,1992.00
2017-10-13T09:11:19.526Z,1996.00
2017-10-13T09:12:19.560Z,2628.00
2017-10-13T09:13:19.599Z,3028.00
2017-10-13T09:14:19.638Z,2720.00
2017-10-13T09:15:19.678Z,2624.00
2017-10-13T09:16:19.713Z,1808.00
2017-10-13T09:17:19.751Z,2056.00
2017-10-13T09:18:19.797Z,2360.00
2017-10-13T09:19:19.827Z,2728.00
2017-10-13T09:20:19.869Z,4368.00
2017-10-13T09:21:19.904Z,5052.00
2017-10-13T09:22:19.941Z,3824.00
2017-10-13T09:23:20.255Z,3248.00
2017-10-13T09:24:20.018Z,2644.00
2017-10-13T09:25:20.109Z,3144.00
2017-10-13T09:26:20.095Z,3516.00
2017-10-13T09:28:20.173Z,2080.00
2017-10-13T09:29:20.210Z,1772.00
2017-10-13T09:30:20.254Z,2812.00
2017-10-13T09:31:20.289Z,4016.00
2017-10-13T09:32:20.328Z,3728.00
2017-10-13T09:33:20.372Z,3224.00
2017-10-13T09:34:20.398Z,2404.00
2017-10-13T09:35:20.437Z,1884.00
2017-10-13T09:36:20.501Z,1728.00
2017-10-13T09:37:20.516Z,1752.00
2017-10-13T09:38:20.553Z,1724.00
2017-10-13T09:39:20.705Z,1716.00
2017-10-13T09:40:20.631Z,1908.00
2017-10-13T09:41:20.672Z,2216.00
2017-10-13T09:42:20.706Z,2084.00
2017-10-13T09:43:20.749Z,2928.00
2017-10-13T09:44:20.789Z,3288.00
2017-10-13T09:45:20.828Z,4856.00
2017-10-13T09:46:20.861Z,3776.00
2017-10-13T09:47:20.899Z,3844.00
2017-10-13T09:48:20.980Z,4860.00
2017-10-13T09:49:21.002Z,2932.00
2017-10-13T09:50:21.015Z,3080.00
2017-10-13T09:51:21.091Z,3216.00
2017-10-13T09:52:21.095Z,3136.00
2017-10-13T09:53:21.135Z,2512.00
2017-10-13T09:54:21.171Z,2668.00
2017-10-13T09:55:21.251Z,3320.00
2017-10-13T09:56:21.336Z,3092.00
2017-10-13T09:57:21.314Z,2588.00
2017-10-13T09:58:23.102Z,3344.00
2017-10-13T09:59:21.370Z,3156.00
2017-10-13T10:00:21.402Z,2840.00
2017-10-13T10:01:21.538Z,2980.00
2017-10-13T10:02:21.562Z,3380.00
2017-10-13T10:03:21.540Z,2960.00
2017-10-13T10:04:21.555Z,2516.00
2017-10-13T10:05:21.601Z,1996.00
2017-10-13T10:06:21.633Z,1944.00
2017-10-13T10:07:21.673Z,1664.00
2017-10-13T10:08:21.713Z,1696.00
2017-10-13T10:09:21.819Z,1752.00
2017-10-13T10:10:21.798Z,1996.00
2017-10-13T10:11:21.827Z,2552.00
2017-10-13T10:12:21.865Z,1768.00
2017-10-13T10:13:21.996Z,1764.00
2017-10-13T10:14:22.027Z,2084.00
2017-10-13T10:15:21.994Z,2344.00
2017-10-13T10:16:22.123Z,2564.00
2017-10-13T10:17:22.503Z,2480.00
2017-10-13T10:18:22.165Z,2464.00
2017-10-13T10:19:22.386Z,2256.00
2017-10-13T10:20:23.594Z,2496.00
2017-10-13T10:21:22.847Z,2260.00
2017-10-13T10:22:23.103Z,2604.00
2017-10-13T10:23:23.176Z,4120.00
2017-10-13T10:24:22.602Z,4364.00
2017-10-13T10:25:22.455Z,4980.00
2017-10-13T10:26:23.663Z,6456.00
2017-10-13T10:27:22.454Z,5488.00
2017-10-13T10:28:22.485Z,3368.00
2017-10-13T10:29:22.528Z,2964.00
2017-10-13T10:30:22.559Z,4044.00
2017-10-13T10:31:22.597Z,3292.00
2017-10-13T10:32:22.683Z,3596.00
2017-10-13T10:33:25.268Z,4160.00
2017-10-13T10:34:22.830Z,4908.00
2017-10-13T10:35:22.757Z,5696.00
2017-10-13T10:36:22.861Z,5764.00
2017-10-13T10:37:22.878Z,5748.00
2017-10-13T10:38:22.981Z,5440.00
2017-10-13T10:39:22.922Z,4612.00
2017-10-13T10:40:22.950Z,3700.00
2017-10-13T10:41:23.076Z,4296.00
2017-10-13T10:42:23.033Z,4892.00
2017-10-13T10:43:23.071Z,4404.00
2017-10-13T10:44:23.161Z,3916.00
2017-10-13T10:45:23.254Z,4592.00
2017-10-13T10:46:23.248Z,4496.00
2017-10-13T10:47:23.230Z,4448.00
2017-10-13T10:48:23.358Z,4892.00
2017-10-13T10:49:23.409Z,3484.00
2017-10-13T10:50:23.410Z,3276.00
2017-10-13T10:51:24.340Z,2880.00
2017-10-13T10:52:23.831Z,1980.00
2017-10-13T10:53:27.221Z,1632.00
2017-10-13T10:54:23.521Z,1980.00
2017-10-13T10:55:24.719Z,2548.00
2017-10-13T10:56:23.645Z,2668.00
2017-10-13T10:57:23.674Z,2456.00
2017-10-13T10:58:23.661Z,2420.00
2017-10-13T10:59:23.703Z,2712.00
2017-10-13T11:00:23.739Z,3084.00
2017-10-13T11:01:23.794Z,3332.00
2017-10-13T11:02:23.927Z,3508.00
2017-10-13T11:03:23.881Z,3560.00
2017-10-13T11:04:23.902Z,3728.00
2017-10-13T11:05:24.014Z,3384.00
2017-10-13T11:06:23.970Z,2520.00
2017-10-13T11:07:24.114Z,2268.00
2017-10-13T11:08:24.119Z,2656.00
2017-10-13T11:09:24.104Z,2432.00
2017-10-13T11:10:24.159Z,2884.00
2017-10-13T11:11:24.280Z,3340.00
2017-10-13T11:12:24.235Z,2964.00
2017-10-13T11:13:24.299Z,2820.00
2017-10-13T11:14:24.440Z,3256.00
2017-10-13T11:15:24.328Z,3028.00
2017-10-13T11:16:24.480Z,2832.00
2017-10-13T11:17:24.445Z,2256.00
2017-10-13T11:18:24.450Z,1400.00
2017-10-13T11:19:24.551Z,1532.00
2017-10-13T11:20:24.525Z,2716.00
2017-10-13T11:21:24.564Z,3384.00
2017-10-13T11:22:24.699Z,3588.00
2017-10-13T11:23:24.638Z,3272.00
2017-10-13T11:24:24.680Z,2456.00
2017-10-13T11:25:24.718Z,2368.00
2017-10-13T11:26:24.763Z,2712.00
2017-10-13T11:27:24.800Z,2464.00
2017-10-13T11:28:24.896Z,2356.00
2017-10-13T11:29:24.872Z,2260.00
2017-10-13T11:30:24.910Z,2096.00
2017-10-13T11:31:24.951Z,1948.00
2017-10-13T11:32:24.989Z,1684.00
2017-10-13T11:33:25.056Z,1620.00
2017-10-13T11:34:25.074Z,1932.00
2017-10-13T11:35:25.105Z,1872.00
2017-10-13T11:36:25.222Z,1916.00
2017-10-13T11:37:25.202Z,1956.00
2017-10-13T11:38:25.224Z,1980.00
2017-10-13T11:39:25.375Z,2068.00
2017-10-13T11:40:25.298Z,2132.00
2017-10-13T11:41:25.349Z,2248.00
2017-10-13T11:42:25.384Z,2408.00
2017-10-13T11:43:25.412Z,2732.00
2017-10-13T11:44:25.456Z,2304.00
2017-10-13T11:45:25.495Z,3256.00
2017-10-13T11:46:25.627Z,4388.00
2017-10-13T11:47:25.572Z,3516.00
2017-10-13T11:48:25.625Z,2412.00
2017-10-13T11:49:25.650Z,1780.00
2017-10-13T11:50:25.734Z,1616.00
2017-10-13T11:51:25.741Z,1904.00
2017-10-13T11:52:25.769Z,1888.00
2017-10-13T11:53:25.808Z,1684.00
2017-10-13T11:54:25.855Z,1892.00
2017-10-13T11:55:25.884Z,1472.00
2017-10-13T11:56:25.932Z,1448.00
2017-10-13T11:57:25.962Z,1496.00
2017-10-13T11:58:26.014Z,1512.00
2017-10-13T11:59:26.042Z,1536.00
2017-10-13T12:00:26.078Z,1584.00
2017-10-13T12:01:26.133Z,1620.00
2017-10-13T12:02:26.263Z,1652.00
2017-10-13T12:03:26.263Z,1964.00
2017-10-13T12:04:26.235Z,1944.00
2017-10-13T12:05:26.270Z,2068.00
2017-10-13T12:06:26.308Z,2112.00
2017-10-13T12:07:26.354Z,2456.00
2017-10-13T12:08:26.494Z,2092.00
2017-10-13T12:09:26.498Z,2212.00
2017-10-13T12:10:29.359Z,2408.00
2017-10-13T12:11:28.232Z,2884.00
2017-10-13T12:12:26.544Z,2856.00
2017-10-13T12:13:26.588Z,2452.00
2017-10-13T12:14:26.625Z,2208.00
2017-10-13T12:15:26.656Z,1824.00
2017-10-13T12:16:26.712Z,1860.00
2017-10-13T12:17:26.897Z,2028.00
2017-10-13T12:18:26.906Z,2188.00
2017-10-13T12:19:26.815Z,2072.00
2017-10-13T12:20:26.865Z,2180.00
2017-10-13T12:21:27.110Z,3064.00
2017-10-13T12:22:26.929Z,3620.00
2017-10-13T12:23:26.973Z,3596.00
2017-10-13T12:24:27.010Z,2580.00
2017-10-13T12:25:27.051Z,2928.00
2017-10-13T12:26:27.080Z,3700.00
2017-10-13T12:27:27.118Z,3368.00
2017-10-13T12:28:27.158Z,2872.00
2017-10-13T12:29:27.205Z,2124.00
2017-10-13T12:30:27.244Z,1744.00
2017-10-13T12:31:27.275Z,1668.00
2017-10-13T12:32:27.316Z,1656.00
2017-10-13T12:33:27.357Z,1760.00
2017-10-13T12:34:27.396Z,2328.00
2017-10-13T12:35:27.430Z,2600.00
2017-10-13T12:36:27.482Z,2712.00
2017-10-13T12:37:27.510Z,3060.00
2017-10-13T12:38:27.547Z,3476.00